Time;durP1;ratioP1;P1;durP2;ratioP2;P2;SDS_P1;SDS_P2;PMS_P1;PMS_P2;Temp;Humidity;BMP_temperature;BMP_pressure;BME280_temperature;BME280_humidity;BME280_pressure;Samples;Min_cycle;Max_cycle;Signal;HPM_P1;HPM_P2
2023/04/03 00:00:35;;;;;;;22.73;12.88;;;;;;;9.67;92.90;99216.19;5073342;28;20572;-42
2023/04/03 00:03:01;;;;;;;19.55;12.60;;;;;;;9.67;92.55;99219.63;5068261;28;20526;-43
2023/04/03 00:05:27;;;;;;;20.70;13.10;;;;;;;9.67;93.18;99222.22;5085655;28;20171;-42
2023/04/03 00:07:53;;;;;;;19.67;12.52;;;;;;;9.51;93.21;99187.38;5083379;28;20093;-44
2023/04/03 00:10:20;;;;;;;23.30;13.18;;;;;;;9.69;93.59;99220.41;5090330;28;20047;-43
2023/04/03 00:12:46;;;;;;;19.88;13.30;;;;;;;9.68;93.07;99221.28;5086397;28;20051;-42
2023/04/03 00:15:12;;;;;;;20.23;12.80;;;;;;;9.49;93.42;99191.75;5090752;28;20050;-43
2023/04/03 00:17:38;;;;;;;22.42;12.40;;;;;;;9.69;93.54;99222.13;5042356;28;20044;-42
2023/04/03 00:20:05;;;;;;;22.88;12.98;;;;;;;9.73;93.61;99223.75;5088216;28;20048;-42
2023/04/03 00:22:31;;;;;;;21.73;13.10;;;;;;;9.74;93.62;99220.22;5070598;28;20135;-42
2023/04/03 00:24:57;;;;;;;22.17;14.10;;;;;;;9.73;93.46;99221.97;5052716;28;20135;-41
2023/04/03 00:27:23;;;;;;;21.00;12.70;;;;;;;9.74;93.32;99220.22;5081335;28;20046;-41
2023/04/03 00:29:49;;;;;;;22.48;13.65;;;;;;;9.76;93.61;99223.63;5075811;28;20047;-41
2023/04/03 00:32:15;;;;;;;21.45;13.95;;;;;;;9.75;93.63;99221.91;5068406;28;20080;-41
2023/04/03 00:34:42;;;;;;;21.40;12.50;;;;;;;9.73;93.88;99213.38;5069915;28;20049;-40
2023/04/03 00:37:08;;;;;;;23.13;12.93;;;;;;;9.56;93.75;99190.63;5068339;28;20096;-39
2023/04/03 00:39:34;;;;;;;25.25;13.80;;;;;;;9.76;93.87;99221.00;5079655;28;20459;-40
2023/04/03 00:42:00;;;;;;;18.42;12.40;;;;;;;9.79;94.21;99215.69;5090037;28;20135;-41
2023/04/03 00:44:35;;;;;;;22.25;13.45;;;;;;;9.83;94.37;99214.69;5071878;28;20500;-39
2023/04/03 00:47:02;;;;;;;24.65;12.65;;;;;;;9.84;94.20;99220.72;5082326;28;20068;-41
2023/04/03 00:49:28;;;;;;;21.20;12.73;;;;;;;9.84;93.39;99220.72;5069829;28;20051;-41
2023/04/03 00:51:55;;;;;;;19.55;12.40;;;;;;;9.85;93.54;99219.81;5068340;28;20076;-41
2023/04/03 00:54:21;;;;;;;20.40;12.57;;;;;;;9.86;93.67;99217.16;5069580;28;20087;-39
2023/04/03 00:56:48;;;;;;;21.02;11.88;;;;;;;9.87;93.86;99213.66;5038728;28;20358;-40
2023/04/03 00:59:22;;;;;;;17.23;12.32;;;;;;;9.90;93.13;99215.28;5085772;28;20423;-40
2023/04/03 01:01:49;;;;;;;24.02;13.55;;;;;;;9.90;93.36;99216.13;5087299;28;20040;-40
2023/04/03 01:04:29;;;;;;;19.17;11.90;;;;;;;9.72;93.28;99191.75;5051294;28;20070;-41
2023/04/03 01:06:58;;;;;;;18.75;12.38;;;;;;;9.89;92.83;99214.44;5070935;28;20047;-40
2023/04/03 01:09:24;;;;;;;22.08;13.05;;;;;;;9.91;93.25;99216.97;5088290;28;20078;-40
2023/04/03 01:11:50;;;;;;;20.40;11.07;;;;;;;9.92;93.03;99222.13;5071483;28;20075;-40
2023/04/03 01:14:17;;;;;;;16.88;10.98;;;;;;;9.93;92.61;99226.41;5071404;28;20050;-40
2023/04/03 01:16:55;;;;;;;16.55;10.90;;;;;;;9.91;91.96;99210.03;5087440;28;20098;-38
2023/04/03 01:19:22;;;;;;;24.05;11.10;;;;;;;9.96;92.01;99222.84;5088886;28;20048;-39
2023/04/03 01:22:00;;;;;;;17.85;10.18;;;;;;;9.95;91.14;99229.78;5033636;28;20040;-39
2023/04/03 01:24:35;;;;;;;18.38;11.30;;;;;;;9.90;90.55;99229.09;5068267;28;20097;-40
2023/04/03 01:27:05;;;;;;;18.95;10.10;;;;;;;9.83;90.62;99225.09;5050232;28;20451;-40
2023/04/03 01:29:31;;;;;;;15.82;9.52;;;;;;;9.81;90.59;99218.25;5067651;28;20044;-39
2023/04/03 01:31:59;;;;;;;15.38;9.13;;;;;;;9.78;89.96;99227.84;5066883;28;20058;-39
2023/04/03 01:34:27;;;;;;;16.23;9.80;;;;;;;9.74;89.66;99215.88;5053908;28;20050;-41
2023/04/03 01:36:54;;;;;;;16.92;10.60;;;;;;;9.73;89.81;99229.75;5070128;28;20519;-40
2023/04/03 01:39:21;;;;;;;24.48;11.00;;;;;;;9.73;89.07;99219.38;5067438;28;20048;-40
2023/04/03 01:41:48;;;;;;;18.48;11.90;;;;;;;9.73;89.38;99215.97;5067344;28;20067;-39
2023/04/03 01:44:20;;;;;;;19.55;10.70;;;;;;;9.71;89.24;99221.19;5051539;28;20061;-39
2023/04/03 01:46:46;;;;;;;19.40;10.57;;;;;;;9.73;89.34;99223.75;5083862;28;20126;-40
2023/04/03 01:49:12;;;;;;;16.95;9.73;;;;;;;9.74;89.12;99230.59;5068587;28;20052;-40
2023/04/03 01:51:38;;;;;;;16.92;10.93;;;;;;;9.72;88.72;99224.63;5073653;28;20474;-39
2023/04/03 01:54:04;;;;;;;15.73;8.90;;;;;;;9.73;88.95;99228.94;5088874;28;20569;-39
2023/04/03 01:56:30;;;;;;;13.43;8.50;;;;;;;9.73;88.79;99231.53;5088069;28;20523;-39
2023/04/03 01:58:56;;;;;;;17.40;8.55;;;;;;;9.72;87.95;99233.28;5098944;28;20047;-39
2023/04/03 02:01:23;;;;;;;14.25;8.93;;;;;;;9.70;87.54;99231.63;5087396;28;20040;-38
2023/04/03 02:03:49;;;;;;;11.20;7.82;;;;;;;9.48;86.89;99197.84;5050176;28;20097;-40
2023/04/03 02:06:15;;;;;;;16.85;9.07;;;;;;;9.63;86.52;99233.59;5082086;28;20031;-40
2023/04/03 02:08:41;;;;;;;14.98;8.80;;;;;;;9.59;86.87;99233.78;5077713;28;20048;-40
2023/04/03 02:11:07;;;;;;;19.10;8.70;;;;;;;9.58;86.35;99232.94;5104074;28;20043;-40
2023/04/03 02:13:34;;;;;;;15.40;8.48;;;;;;;9.57;86.48;99235.59;5104258;28;20153;-40
2023/04/03 02:16:07;;;;;;;12.38;8.65;;;;;;;9.41;86.32;99205.94;5086851;28;20430;-40
2023/04/03 02:18:33;;;;;;;13.82;9.00;;;;;;;9.53;86.18;99219.28;5071886;28;20427;-39
2023/04/03 02:20:59;;;;;;;16.58;9.43;;;;;;;9.50;86.11;99219.41;5083761;28;20032;-45
2023/04/03 02:23:26;;;;;;;17.08;9.27;;;;;;;9.49;86.27;99230.69;5071282;28;20507;-40
2023/04/03 02:25:52;;;;;;;18.23;10.10;;;;;;;9.34;86.57;99197.53;5069969;28;20040;-39
2023/04/03 02:28:17;;;;;;;15.02;9.73;;;;;;;9.48;86.38;99222.94;5072573;28;20052;-40
2023/04/03 02:30:43;;;;;;;15.00;9.27;;;;;;;9.48;86.22;99231.59;5066383;28;20041;-40
2023/04/03 02:33:10;;;;;;;16.25;9.32;;;;;;;9.48;86.45;99238.53;5067883;28;20047;-41
2023/04/03 02:35:38;;;;;;;16.55;9.55;;;;;;;9.46;86.58;99229.97;5066520;28;20049;-41
2023/04/03 02:38:04;;;;;;;19.48;10.48;;;;;;;9.49;86.35;99224.66;5049703;28;20088;-40
2023/04/03 02:40:30;;;;;;;16.85;9.88;;;;;;;9.44;86.33;99219.63;5066408;28;20044;-39
2023/04/03 02:42:56;;;;;;;19.33;9.60;;;;;;;9.47;86.39;99223.88;5067072;28;20586;-39
2023/04/03 02:45:24;;;;;;;17.65;10.45;;;;;;;9.48;86.32;99233.31;5087527;28;20515;-40
2023/04/03 02:47:50;;;;;;;17.65;10.32;;;;;;;9.35;86.41;99202.66;5053603;28;20055;-40
2023/04/03 02:50:15;;;;;;;20.13;10.30;;;;;;;9.51;86.73;99226.28;5070639;28;20526;-39
2023/04/03 02:52:41;;;;;;;13.40;8.82;;;;;;;9.53;86.33;99223.63;5071952;28;20526;-38
2023/04/03 02:55:08;;;;;;;16.15;9.45;;;;;;;9.54;86.21;99222.72;5087375;28;20516;-39
2023/04/03 02:57:35;;;;;;;18.60;8.57;;;;;;;9.53;85.72;99224.47;5096801;28;20629;-39
2023/04/03 03:00:01;;;;;;;17.17;9.68;;;;;;;9.57;85.91;99220.03;5080186;28;20040;-40
2023/04/03 03:02:28;;;;;;;17.15;9.70;;;;;;;9.58;86.50;99221.69;5105735;28;20052;-38
2023/04/03 03:04:54;;;;;;;20.42;11.65;;;;;;;9.58;86.15;99229.47;5073858;28;20040;-38
2023/04/03 03:07:20;;;;;;;19.48;9.93;;;;;;;9.57;86.53;99223.47;5089593;28;20469;-40
2023/04/03 03:09:46;;;;;;;20.67;11.32;;;;;;;9.62;85.77;99236.28;5087139;28;20040;-40
2023/04/03 03:12:12;;;;;;;18.55;10.07;;;;;;;9.61;85.64;99230.25;5071654;28;20055;-39
2023/04/03 03:14:38;;;;;;;15.65;8.70;;;;;;;9.64;86.04;99234.44;5070002;28;20136;-41
2023/04/03 03:17:04;;;;;;;17.60;8.73;;;;;;;9.62;85.29;99231.94;5096620;28;20582;-41
2023/04/03 03:19:30;;;;;;;17.50;9.45;;;;;;;9.67;85.00;99234.34;5071029;28;20674;-40
2023/04/03 03:21:56;;;;;;;17.95;9.60;;;;;;;9.52;84.59;99216.78;5086865;28;20461;-41
2023/04/03 03:24:22;;;;;;;20.23;9.35;;;;;;;9.64;84.16;99237.03;5086675;28;20152;-40
2023/04/03 03:26:48;;;;;;;14.18;9.52;;;;;;;9.64;83.17;99239.66;5069624;28;20131;-40
2023/04/03 03:29:15;;;;;;;17.05;9.85;;;;;;;9.66;82.86;99243.03;5069567;28;20037;-39
2023/04/03 03:31:41;;;;;;;20.48;10.88;;;;;;;9.67;82.22;99248.19;5053436;28;20043;-40
2023/04/03 03:34:07;;;;;;;23.45;10.32;;;;;;;9.70;81.68;99252.41;5079060;28;20040;-39
2023/04/03 03:36:33;;;;;;;15.38;9.10;;;;;;;9.38;80.76;99193.06;5091228;28;20122;-39
2023/04/03 03:39:00;;;;;;;16.15;9.43;;;;;;;9.54;79.89;99220.97;5072894;28;20047;-40
2023/04/03 03:41:26;;;;;;;18.75;9.68;;;;;;;9.69;79.12;99251.53;5089718;28;20040;-40
2023/04/03 03:43:52;;;;;;;15.80;9.23;;;;;;;9.71;79.70;99261.88;5090139;28;20089;-39
2023/04/03 03:46:18;;;;;;;18.33;8.93;;;;;;;9.74;78.52;99248.78;5089532;28;20079;-39
2023/04/03 03:48:44;;;;;;;17.80;9.38;;;;;;;9.79;78.13;99254.63;5080243;28;20066;-39
2023/04/03 03:51:11;;;;;;;18.08;9.32;;;;;;;9.79;77.75;99239.91;5059718;28;20036;-40
2023/04/03 03:53:38;;;;;;;16.40;8.90;;;;;;;9.88;77.34;99243.06;5086388;28;20072;-40
2023/04/03 03:56:07;;;;;;;;;;;;;;;9.93;77.31;99244.59;5054838;28;20756;-40
2023/04/03 03:58:35;;;;;;;18.67;10.52;;;;;;;9.94;76.03;99246.28;5060033;28;19920;-39
2023/04/03 04:01:03;;;;;;;19.10;9.43;;;;;;;9.96;75.68;99244.47;5069290;28;20064;-39
2023/04/03 04:03:31;;;;;;;26.40;11.20;;;;;;;9.85;75.81;99225.00;5085517;28;20123;-40
2023/04/03 04:05:57;;;;;;;19.20;10.52;;;;;;;10.04;75.55;99247.63;5081473;28;20127;-41
2023/04/03 04:08:23;;;;;;;18.42;9.52;;;;;;;10.06;74.83;99243.19;5068410;28;20059;-41
2023/04/03 04:10:49;;;;;;;17.85;9.63;;;;;;;10.11;74.83;99238.66;5085970;28;20043;-39
2023/04/03 04:13:17;;;;;;;14.10;9.52;;;;;;;10.16;74.51;99244.56;5069263;28;20500;-40
2023/04/03 04:15:43;;;;;;;19.83;10.25;;;;;;;10.22;74.29;99245.22;5076052;28;20515;-41
2023/04/03 04:18:09;;;;;;;16.88;9.80;;;;;;;10.11;73.51;99215.28;5088685;28;20048;-39
2023/04/03 04:20:36;;;;;;;19.75;10.52;;;;;;;10.33;73.19;99251.69;5086562;28;20047;-40
2023/04/03 04:23:02;;;;;;;15.50;9.75;;;;;;;10.39;72.86;99242.78;5056253;28;20078;-40
2023/04/03 04:25:30;;;;;;;18.10;10.13;;;;;;;10.45;72.95;99250.34;5086192;28;20044;-40
2023/04/03 04:27:56;;;;;;;20.90;10.35;;;;;;;10.46;72.40;99246.84;5103129;28;20093;-39
2023/04/03 04:30:21;;;;;;;18.10;9.73;;;;;;;10.48;71.89;99260.59;5069670;28;20047;-41
2023/04/03 04:32:49;;;;;;;17.52;9.93;;;;;;;10.52;71.19;99251.78;5069992;28;20458;-41
2023/04/03 04:35:16;;;;;;;19.42;10.98;;;;;;;10.54;71.00;99255.16;5096008;28;20092;-38
2023/04/03 04:37:43;;;;;;;19.33;9.73;;;;;;;10.55;70.70;99254.25;5085886;28;20093;-40
2023/04/03 04:40:10;;;;;;;20.50;9.98;;;;;;;10.46;70.22;99247.69;5086946;28;20050;-40
2023/04/03 04:42:38;;;;;;;18.98;10.65;;;;;;;10.66;70.12;99266.81;5087962;28;20109;-40
2023/04/03 04:45:06;;;;;;;16.27;9.82;;;;;;;10.73;70.02;99271.66;5071340;28;20040;-41
2023/04/03 04:47:32;;;;;;;18.77;10.48;;;;;;;10.80;69.53;99267.06;5071232;28;20132;-40
2023/04/03 04:49:58;;;;;;;19.17;11.48;;;;;;;10.78;69.13;99254.13;5086969;28;20140;-41
2023/04/03 04:52:25;;;;;;;22.48;10.15;;;;;;;11.00;69.10;99277.47;5088014;28;20119;-40
2023/04/03 04:54:50;;;;;;;15.43;9.98;;;;;;;11.06;68.37;99277.22;5086627;28;20538;-39
2023/04/03 04:57:17;;;;;;;19.63;9.82;;;;;;;11.13;68.32;99278.66;5089401;28;20039;-40
2023/04/03 04:59:43;;;;;;;16.45;10.13;;;;;;;11.18;67.88;99279.31;5086674;28;20047;-40
2023/04/03 05:02:09;;;;;;;16.83;10.18;;;;;;;11.27;67.74;99281.50;5070765;28;20043;-40
2023/04/03 05:04:37;;;;;;;15.75;9.27;;;;;;;11.36;67.38;99275.03;5081836;28;20091;-41
2023/04/03 05:07:09;;;;;;;26.02;13.60;;;;;;;11.48;66.77;99280.56;5087342;28;20101;-41
2023/04/03 05:09:37;;;;;;;17.77;11.43;;;;;;;11.60;66.53;99271.38;5078631;28;20143;-41
2023/04/03 05:12:03;;;;;;;26.13;11.77;;;;;;;11.72;66.30;99267.38;5069374;28;20101;-40
2023/04/03 05:14:35;;;;;;;20.30;10.82;;;;;;;11.82;65.46;99273.88;5055148;28;20115;-40
2023/04/03 05:17:05;;;;;;;20.65;11.68;;;;;;;11.78;65.69;99244.50;5086585;28;20074;-42
2023/04/03 05:19:35;;;;;;;17.70;10.05;;;;;;;12.02;65.18;99271.19;5065352;28;20033;-41
2023/04/03 05:22:02;;;;;;;17.30;10.82;;;;;;;12.18;64.52;99263.50;5080345;28;20036;-40
2023/04/03 05:24:29;;;;;;;21.85;11.75;;;;;;;12.31;64.06;99249.78;5087207;28;20074;-40
2023/04/03 05:26:55;;;;;;;21.98;11.90;;;;;;;12.66;63.42;99270.72;5070686;28;20040;-41
2023/04/03 05:29:22;;;;;;;21.42;11.38;;;;;;;12.84;62.72;99263.72;5066847;28;20109;-42
2023/04/03 05:31:50;;;;;;;20.63;10.88;;;;;;;12.72;62.04;99226.88;5066893;28;20036;-40
2023/04/03 05:34:16;;;;;;;20.98;11.00;;;;;;;13.07;61.19;99271.22;5080724;28;20052;-40
2023/04/03 05:36:44;;;;;;;22.52;11.18;;;;;;;13.07;60.41;99274.69;5072547;28;20032;-40
2023/04/03 05:39:10;;;;;;;22.83;10.90;;;;;;;13.14;59.94;99273.47;5059609;28;20122;-40
2023/04/03 05:41:40;;;;;;;21.02;10.35;;;;;;;13.08;59.75;99241.59;5087403;28;20139;-41
2023/04/03 05:44:06;;;;;;;21.65;11.05;;;;;;;13.08;59.36;99236.38;5068182;28;20072;-39
2023/04/03 05:46:32;;;;;;;23.75;11.55;;;;;;;13.35;58.71;99273.28;5084334;28;20079;-42
2023/04/03 05:49:02;;;;;;;22.45;11.50;;;;;;;13.22;58.54;99251.34;5084848;28;20041;-41
2023/04/03 05:51:34;;;;;;;21.77;11.70;;;;;;;13.39;58.08;99275.69;5078847;28;20035;-41
2023/04/03 05:54:12;;;;;;;18.25;10.80;;;;;;;13.40;57.85;99276.50;5055531;28;20121;-40
2023/04/03 05:56:38;;;;;;;20.25;11.15;;;;;;;13.14;57.58;99233.47;5069359;28;20070;-40
2023/04/03 05:59:04;;;;;;;19.17;10.77;;;;;;;13.33;57.66;99275.16;5068133;28;20870;-41
2023/04/03 06:01:30;;;;;;;21.65;11.52;;;;;;;13.34;57.49;99276.84;5071844;28;20122;-40
2023/04/03 06:03:58;;;;;;;21.83;11.55;;;;;;;13.34;57.39;99284.66;5081527;28;20055;-39
2023/04/03 06:06:25;;;;;;;22.52;10.90;;;;;;;13.24;57.16;99265.19;5068529;28;20122;-39
2023/04/03 06:08:51;;;;;;;22.95;10.57;;;;;;;13.12;57.45;99254.44;5084194;28;20130;-39
2023/04/03 06:11:17;;;;;;;18.50;11.20;;;;;;;13.29;56.92;99287.53;5080386;28;20038;-40
2023/04/03 06:13:43;;;;;;;20.23;10.75;;;;;;;13.15;56.56;99277.78;5080952;28;20131;-40
2023/04/03 06:16:14;;;;;;;17.52;10.57;;;;;;;13.11;56.50;99294.53;5075148;28;20386;-40
2023/04/03 06:18:41;;;;;;;24.92;12.75;;;;;;;13.03;56.28;99301.84;5066185;28;20508;-40
2023/04/03 06:21:07;;;;;;;26.42;12.25;;;;;;;12.98;56.44;99303.84;5056360;28;20040;-39
2023/04/03 06:23:33;;;;;;;20.55;10.57;;;;;;;12.95;56.47;99301.41;5083919;28;20043;-41
2023/04/03 06:26:00;;;;;;;19.08;10.18;;;;;;;13.00;56.27;99306.38;5060173;28;20045;-42
2023/04/03 06:28:26;;;;;;;21.63;10.15;;;;;;;12.98;56.16;99309.06;5067516;28;20058;-41
2023/04/03 06:30:51;;;;;;;19.30;9.55;;;;;;;13.01;55.99;99310.69;5068134;28;20423;-39
2023/04/03 06:33:17;;;;;;;22.10;10.48;;;;;;;13.08;55.60;99314.69;5084444;28;20094;-42
2023/04/03 06:35:43;;;;;;;21.23;10.85;;;;;;;13.08;55.20;99309.47;5067098;28;20048;-42
2023/04/03 06:38:09;;;;;;;19.15;10.63;;;;;;;13.05;55.09;99312.22;5059626;28;20047;-43
2023/04/03 06:40:36;;;;;;;23.45;11.13;;;;;;;13.10;54.78;99318.88;5077667;28;20040;-43
2023/04/03 06:43:02;;;;;;;24.38;11.45;;;;;;;13.17;54.67;99305.56;5075746;28;20156;-41
2023/04/03 06:45:27;;;;;;;23.13;10.23;;;;;;;13.26;55.10;99312.91;5052459;28;20128;-42
2023/04/03 06:47:53;;;;;;;18.65;10.60;;;;;;;13.27;54.71;99294.56;5065930;28;20660;-49
2023/04/03 06:50:20;;;;;;;24.60;11.15;;;;;;;13.46;54.39;99304.91;5065936;28;20143;-41
2023/04/03 06:52:46;;;;;;;24.13;11.48;;;;;;;13.56;54.19;99314.78;5064272;28;20036;-42
2023/04/03 06:55:12;;;;;;;16.80;10.43;;;;;;;13.73;53.97;99308.69;5062601;28;20460;-42
2023/04/03 06:57:38;;;;;;;21.55;11.30;;;;;;;14.02;53.50;99304.53;5082053;28;20067;-42
2023/04/03 07:00:05;;;;;;;23.90;11.10;;;;;;;14.21;52.97;99297.34;5064493;28;20048;-42
2023/04/03 07:02:32;;;;;;;20.50;10.45;;;;;;;14.55;52.08;99314.63;5065941;28;20089;-41
2023/04/03 07:04:58;;;;;;;26.50;11.23;;;;;;;14.65;51.57;99317.59;5071949;28;20046;-42
2023/04/03 07:07:24;;;;;;;18.33;9.65;;;;;;;14.81;51.39;99321.03;5068894;28;20044;-43
2023/04/03 07:09:50;;;;;;;23.00;11.65;;;;;;;14.92;50.85;99312.53;5067756;28;20085;-41
2023/04/03 07:12:16;;;;;;;24.92;11.30;;;;;;;15.01;50.88;99317.25;5067573;28;20044;-42
2023/04/03 07:14:42;;;;;;;16.92;11.38;;;;;;;15.15;50.63;99312.88;5049479;28;20450;-41
2023/04/03 07:17:08;;;;;;;18.23;10.93;;;;;;;15.22;50.08;99306.38;5067318;28;20029;-42
2023/04/03 07:19:37;;;;;;;25.90;11.65;;;;;;;15.39;49.62;99313.19;5067344;28;20098;-40
2023/04/03 07:22:03;;;;;;;20.25;10.38;;;;;;;15.64;49.37;99315.22;5066907;28;20052;-42
2023/04/03 07:24:29;;;;;;;27.58;11.10;;;;;;;15.82;48.91;99321.94;5065732;28;20040;-43
2023/04/03 07:26:55;;;;;;;19.65;11.20;;;;;;;15.68;48.41;99293.97;5066000;28;20051;-41
2023/04/03 07:29:21;;;;;;;18.25;10.15;;;;;;;15.78;48.35;99291.63;5066811;28;20043;-42
2023/04/03 07:31:47;;;;;;;21.88;10.18;;;;;;;16.05;47.62;99312.66;5070488;28;20112;-43
2023/04/03 07:34:13;;;;;;;17.55;9.80;;;;;;;16.18;47.59;99324.06;5070989;28;20373;-42
2023/04/03 07:36:39;;;;;;;19.85;10.02;;;;;;;16.24;46.96;99315.81;5070825;28;20130;-49
2023/04/03 07:39:06;;;;;;;23.05;10.68;;;;;;;16.51;46.45;99327.19;5069377;28;20128;-42
2023/04/03 07:41:33;;;;;;;24.30;10.55;;;;;;;16.97;45.75;99286.59;5069133;28;20369;-43
2023/04/03 07:43:58;;;;;;;20.70;10.90;;;;;;;17.93;44.47;99313.25;5070617;28;20496;-41
2023/04/03 07:46:24;;;;;;;22.38;10.65;;;;;;;18.28;43.30;99291.47;5069619;28;20041;-42
2023/04/03 07:48:52;;;;;;;19.58;11.63;;;;;;;18.72;42.59;99304.91;5069421;28;20547;-42
2023/04/03 07:51:17;;;;;;;28.15;11.98;;;;;;;19.11;41.63;99318.69;5068853;28;20078;-41
2023/04/03 07:53:43;;;;;;;30.17;11.48;;;;;;;19.44;41.07;99322.28;5070792;28;20072;-42
2023/04/03 07:56:09;;;;;;;35.88;14.90;;;;;;;19.80;40.54;99323.88;5069198;28;20036;-41
2023/04/03 07:58:35;;;;;;;24.83;13.52;;;;;;;20.24;39.73;99327.47;5070629;28;20420;-43
2023/04/03 08:01:02;;;;;;;31.25;13.20;;;;;;;20.60;39.08;99319.25;5052639;28;20045;-42
2023/04/03 08:03:28;;;;;;;33.78;17.02;;;;;;;20.82;38.96;99322.78;5068760;28;20033;-41
2023/04/03 08:05:54;;;;;;;25.58;12.38;;;;;;;20.81;38.81;99327.22;5081320;28;20048;-44
2023/04/03 08:08:22;;;;;;;24.33;11.75;;;;;;;20.63;38.43;99326.06;5073953;28;20028;-42
2023/04/03 08:10:52;;;;;;;25.98;13.48;;;;;;;20.29;38.52;99317.38;5068985;28;20040;-42
2023/04/03 08:13:18;;;;;;;23.48;12.02;;;;;;;19.99;38.30;99317.16;5085771;28;20036;-43
2023/04/03 08:15:44;;;;;;;19.80;11.38;;;;;;;19.99;38.32;99320.66;5090452;28;20067;-41
2023/04/03 08:18:10;;;;;;;22.65;12.18;;;;;;;19.82;38.41;99318.50;5088957;28;20119;-41
2023/04/03 08:20:38;;;;;;;19.20;12.07;;;;;;;19.65;38.69;99314.53;5072042;28;20571;-41
2023/04/03 08:23:04;;;;;;;21.85;12.52;;;;;;;19.57;38.85;99318.72;5073128;28;20040;-42
2023/04/03 08:25:30;;;;;;;27.13;13.10;;;;;;;19.50;39.09;99318.34;5068387;28;20534;-43
2023/04/03 08:27:56;;;;;;;21.92;12.07;;;;;;;19.55;38.99;99313.56;5069937;28;20048;-43
2023/04/03 08:30:22;;;;;;;24.02;12.48;;;;;;;19.65;38.66;99298.69;5068405;28;20052;-42
2023/04/03 08:32:48;;;;;;;25.75;15.57;;;;;;;19.85;38.60;99310.31;5069775;28;20420;-42
2023/04/03 08:35:14;;;;;;;23.02;12.30;;;;;;;19.69;38.87;99305.41;5085315;28;20431;-41
2023/04/03 08:37:41;;;;;;;23.67;13.88;;;;;;;19.74;38.75;99305.88;5069656;28;20036;-41
2023/04/03 08:40:11;;;;;;;24.88;11.25;;;;;;;19.87;38.24;99316.31;5068000;28;20063;-42
2023/04/03 08:42:49;;;;;;;22.73;11.40;;;;;;;19.77;38.05;99320.66;5067268;28;20060;-43
2023/04/03 08:45:33;;;;;;;26.80;12.30;;;;;;;19.77;38.04;99324.13;5068388;28;20068;-41
2023/04/03 08:48:22;;;;;;;22.33;12.05;;;;;;;19.72;37.92;99331.56;5051700;28;20762;-42
2023/04/03 08:50:52;;;;;;;23.05;11.02;;;;;;;19.68;38.24;99332.72;5068287;28;20046;-43
2023/04/03 08:53:22;;;;;;;20.52;11.15;;;;;;;19.62;38.34;99329.75;5068052;28;20028;-42
2023/04/03 08:55:51;;;;;;;19.63;10.55;;;;;;;19.54;38.48;99332.97;5068249;28;20032;-41
2023/04/03 08:58:28;;;;;;;22.23;10.27;;;;;;;19.52;38.24;99336.69;5067291;28;20126;-42
2023/04/03 09:00:56;;;;;;;21.48;10.43;;;;;;;19.51;38.03;99341.13;5051673;28;20158;-42
2023/04/03 09:03:22;;;;;;;23.58;11.27;;;;;;;19.18;38.40;99306.72;5071086;28;20047;-41
2023/04/03 09:05:55;;;;;;;17.92;10.30;;;;;;;19.15;38.93;99336.81;5076580;28;20040;-42
2023/04/03 09:08:29;;;;;;;20.30;11.25;;;;;;;19.03;39.36;99345.63;5067683;28;20102;-42
2023/04/03 09:11:06;;;;;;;20.88;9.82;;;;;;;19.07;39.42;99336.53;5051467;28;20070;-42
2023/04/03 09:13:36;;;;;;;17.02;10.80;;;;;;;19.10;39.26;99343.38;5067622;28;20040;-42
2023/04/03 09:16:06;;;;;;;22.48;11.60;;;;;;;19.17;38.97;99341.94;5069058;28;20032;-41
2023/04/03 09:18:40;;;;;;;18.83;11.05;;;;;;;19.20;39.13;99349.63;5067531;28;20068;-42
2023/04/03 09:21:17;;;;;;;22.85;11.68;;;;;;;19.21;38.93;99346.06;5050886;28;20037;-41
2023/04/03 09:23:50;;;;;;;20.10;10.68;;;;;;;19.07;38.92;99322.50;5067248;28;20134;-42
2023/04/03 09:26:19;;;;;;;23.17;10.68;;;;;;;19.31;38.55;99347.03;5067478;28;20488;-41
2023/04/03 09:28:45;;;;;;;;;;;;;;;19.37;38.54;99347.38;5034678;28;20147;-42
2023/04/03 09:31:46;;;;;;;19.98;10.63;;;;;;;19.45;38.19;99355.63;5101199;28;20374;-43
2023/04/03 09:34:32;;;;;;;18.35;10.05;;;;;;;19.49;38.07;99353.56;5068170;28;20561;-41
2023/04/03 09:37:05;;;;;;;17.42;9.70;;;;;;;19.44;38.22;99358.31;5067569;28;20040;-42
2023/04/03 09:39:33;;;;;;;25.13;12.57;;;;;;;19.31;38.03;99352.31;5068527;28;20044;-42
2023/04/03 09:42:03;;;;;;;19.00;10.43;;;;;;;19.29;38.25;99356.84;5067164;28;20063;-42
2023/04/03 09:44:37;;;;;;;18.13;10.50;;;;;;;19.34;38.28;99355.53;5067366;28;20427;-42
2023/04/03 09:47:35;;;;;;;17.73;10.02;;;;;;;19.53;38.35;99354.16;5067214;28;20041;-41
2023/04/03 09:50:13;;;;;;;18.13;10.38;;;;;;;19.80;38.51;99347.63;5067368;28;20141;-42
2023/04/03 09:52:42;;;;;;;22.48;9.85;;;;;;;19.83;38.25;99350.03;5066934;28;20046;-42
2023/04/03 09:55:17;;;;;;;21.00;10.70;;;;;;;19.73;38.07;99354.31;5064566;28;20036;-41
2023/04/03 09:57:45;;;;;;;23.63;11.02;;;;;;;19.70;38.17;99338.75;5083847;28;20129;-44
2023/04/03 10:00:25;;;;;;;22.73;11.05;;;;;;;19.51;38.24;99348.19;5050457;28;20395;-43
2023/04/03 10:02:55;;;;;;;21.17;9.45;;;;;;;19.37;37.72;99344.75;5067332;28;20055;-43
2023/04/03 10:05:39;;;;;;;17.92;9.75;;;;;;;19.24;37.58;99354.56;5087802;28;20413;-43
2023/04/03 10:08:15;;;;;;;21.40;9.88;;;;;;;19.36;37.57;99353.66;5083224;28;20059;-44
2023/04/03 10:10:46;;;;;;;29.08;11.85;;;;;;;18.72;37.97;99306.69;5050247;28;20055;-47
2023/04/03 10:13:19;;;;;;;22.80;11.45;;;;;;;18.84;38.37;99354.03;5050569;28;20105;-42
2023/04/03 10:15:52;;;;;;;24.13;11.43;;;;;;;18.78;38.15;99351.88;5066959;28;20036;-41
2023/04/03 10:18:29;;;;;;;19.40;11.70;;;;;;;18.48;38.73;99349.63;5050014;28;20093;-43
2023/04/03 10:21:02;;;;;;;19.50;10.77;;;;;;;18.53;38.67;99358.03;5066775;28;20120;-41
2023/04/03 10:23:44;;;;;;;21.05;10.95;;;;;;;18.50;38.75;99354.78;5067275;28;21115;-42
2023/04/03 10:26:19;;;;;;;21.10;10.07;;;;;;;18.65;38.73;99351.06;5049917;28;20045;-42
2023/04/03 10:29:16;;;;;;;23.65;9.40;;;;;;;18.93;38.30;99353.38;5066563;28;20036;-42
2023/04/03 10:32:05;;;;;;;21.25;10.13;;;;;;;19.04;38.19;99356.06;5083202;28;20040;-48
2023/04/03 10:34:41;;;;;;;22.77;10.63;;;;;;;19.06;37.96;99334.84;5061973;28;20040;-42
2023/04/03 10:37:24;;;;;;;27.38;11.23;;;;;;;19.41;37.50;99362.03;5049455;28;20097;-43
2023/04/03 10:40:11;;;;;;;21.63;10.88;;;;;;;19.61;37.22;99364.97;5067603;28;20546;-44
2023/04/03 10:42:51;;;;;;;23.73;10.40;;;;;;;19.53;36.69;99364.72;5067404;28;20059;-41
2023/04/03 10:45:53;;;;;;;21.40;10.65;;;;;;;19.37;36.80;99363.22;5067471;28;20041;-43
2023/04/03 10:48:31;;;;;;;19.63;9.85;;;;;;;19.26;36.67;99365.81;5053699;28;20055;-42
2023/04/03 10:51:10;;;;;;;20.02;10.48;;;;;;;19.22;36.82;99364.38;5067867;28;20037;-42
2023/04/03 10:53:54;;;;;;;18.42;9.68;;;;;;;18.92;36.91;99348.22;5066454;28;20043;-42
2023/04/03 10:56:35;;;;;;;20.17;10.65;;;;;;;18.88;36.88;99368.69;5067566;28;20037;-43
2023/04/03 10:59:20;;;;;;;19.30;10.05;;;;;;;18.69;36.95;99370.09;5086589;28;20039;-41
2023/04/03 11:01:56;;;;;;;26.45;11.73;;;;;;;18.91;37.22;99372.88;5086347;28;20044;-43
2023/04/03 11:04:26;;;;;;;27.05;12.23;;;;;;;18.76;37.61;99340.59;5049360;28;20044;-43
2023/04/03 11:06:57;;;;;;;20.58;11.63;;;;;;;18.91;37.87;99367.59;5070333;28;20123;-42
2023/04/03 11:09:44;;;;;;;28.05;11.65;;;;;;;18.77;37.32;99365.97;5070278;28;20044;-42
2023/04/03 11:12:18;;;;;;;24.52;11.25;;;;;;;18.48;37.23;99354.88;5069944;28;20032;-42
2023/04/03 11:14:47;;;;;;;24.65;11.38;;;;;;;18.45;37.32;99362.16;5070735;28;20052;-43
2023/04/03 11:17:26;;;;;;;34.40;11.93;;;;;;;18.43;37.46;99366.69;5069774;28;20037;-41
2023/04/03 11:20:08;;;;;;;26.60;11.18;;;;;;;18.21;37.39;99312.13;5071472;28;20040;-44
2023/04/03 11:22:41;;;;;;;17.70;9.30;;;;;;;18.39;37.35;99350.28;5091613;28;20044;-41
2023/04/03 11:25:11;;;;;;;23.67;9.68;;;;;;;18.24;37.16;99354.00;5081528;28;20153;-42
2023/04/03 11:27:55;;;;;;;16.77;9.20;;;;;;;18.24;37.13;99351.38;5071052;28;20047;-41
2023/04/03 11:30:44;;;;;;;26.65;8.98;;;;;;;18.13;36.71;99352.13;5052779;28;20483;-41